Potlatch, Idaho
Current Conditions -  °F | °C
As of 8:53 AM on Thursday 23 Oct 2014 (Local Time) from KPUW Reporting Station
Light Rain Light Rain  
Wind Chill: 51°   Ceiling: 6000
Heat Index: 51°   Visibility: 7mi
Dew Point: 47°   Wind: 9mph
Humidity: 86%   Direction: 110°ESE
Pressure: 29.84"   Gusts: NA
Location:  46.92°N, 116.9°W
Report Text: KPUW 231553Z AUTO 11008KT 7SM -RA OVC060 11/08 A2984 RMK AO2 RAB47 SLP106 P0000 T01060083
Loading
Personal Weather Stations






























Interactive Weather Map
Tropical Storm Tracking
New forecast layout! Learn more

10-Day Weather Forecast

Advertisements
Track Severe Weather on mobile